Información del aeropuerto LERS

Información de pista
Pista 07 Longitud 8054 ft Anchura 148 ft Elevación 231 ft Umbral 853 ft Rumbo 69
Pista 25 Longitud 8054 ft Anchura 148 ft Elevación 234 ft Umbral N/A Rumbo 249
Pista 12 Longitud 1117 ft Anchura 115 ft Elevación 226 ft Umbral N/A Rumbo 111
Pista 30 Longitud 1117 ft Anchura 115 ft Elevación 198 ft Umbral N/A Rumbo 291
Frecuencias del aeropuerto
Tipo APP Nombre APP Frecuencia 118.15 MHZ
Tipo GND Nombre GND Frecuencia 121.7 MHZ
Tipo TWR Nombre TWR Frecuencia 118.15 MHZ
Radioayudas del aeropuerto
Tipo VOR-DME Nombre Reus Frecuencia 114200 KHZ
Tipo NDB Nombre Reus Frecuencia 424 KHZ
METAR y NOTAM del aeropuerto
ADDS - METARS form results

(2218 UTC 06 February 2023)
Data provider http://aviationweather.gov/metar/data/
 
METAR text: LERS 062200Z AUTO VRB02KT CAVOK 08/02 Q1026
Conditions at: LERS (REUS (CIV/MIL) , ES) observed 2200 UTC 06 February 2023
Temperature: 8.0°C (46°F)
Dewpoint: 2.0°C (36°F) [RH = 66%]
Pressure (altimeter): 30.30 inches Hg (1026.0 mb)
Winds: variable direction winds at 2 MPH (2 knots; 1.0 m/s)
Visibility: 6 or more miles (10+ km)
Ceiling: ceiling and visibility are OK
Clouds: unknown
Weather: no significant weather observed at this time

METAR text: LERS 062130Z AUTO 31003KT 290V350 CAVOK 08/03 Q1026
Conditions at: LERS (REUS (CIV/MIL) , ES) observed 2130 UTC 06 February 2023
Temperature: 8.0°C (46°F)
Dewpoint: 3.0°C (37°F) [RH = 71%]
Pressure (altimeter): 30.30 inches Hg (1026.0 mb)
Winds: from the NW (310 degrees) at 3 MPH (3 knots; 1.5 m/s)
Visibility: 6 or more miles (10+ km)
Ceiling: ceiling and visibility are OK
Clouds: unknown
Weather: no significant weather observed at this time

Forecast for: LERS (REUS (CIV/MIL) , ES)
Text: TAF LERS 062000Z 0621/0721 02009KT 9999 FEW040 TX12/0713Z TN03/0706Z
Forecast period: 2100 UTC 06 February 2023 to 2100 UTC 07 February 2023
Forecast type: FROM: standard forecast or significant change
Winds: from the NNE (20 degrees) at 10 MPH (9 knots; 4.6 m/s)
Visibility: 6 or more miles (10+ km)
Ceiling: at least 12,000 feet AGL
Clouds: few clouds at 4000 feet AGL
Weather: no significant weather forecast for this period
Text: PROB40
Forecast period: 2100 to 2300 UTC 06 February 2023
Forecast type: TEMPORARY: The following changes expected for less than half the time period
Visibility: missing
Ceiling: at least 12,000 feet AGL
Clouds: few clouds at 3000 feet AGL
Weather: RA  (moderate rain)